createdAt,value
2023-02-11T00:01:22.941Z,-0.19
2023-02-11T00:06:43.703Z,-0.22
2023-02-11T00:12:04.722Z,-0.19
2023-02-11T00:17:25.980Z,-0.21
2023-02-11T00:22:46.830Z,-0.21
2023-02-11T00:28:08.155Z,-0.17
2023-02-11T00:33:28.777Z,-0.26
2023-02-11T00:38:50.915Z,-0.37
2023-02-11T00:44:11.862Z,-0.36
2023-02-11T00:49:34.350Z,-0.34
2023-02-11T00:54:55.302Z,-0.31
2023-02-11T01:00:16.284Z,-0.27
2023-02-11T01:05:38.836Z,-0.26
2023-02-11T01:11:02.768Z,-0.18
2023-02-11T01:16:23.771Z,-0.17
2023-02-11T01:21:46.888Z,-0.16
2023-02-11T01:27:08.207Z,-0.14
2023-02-11T01:32:29.050Z,-0.08
2023-02-11T01:37:49.722Z,-0.11
2023-02-11T01:43:12.145Z,-0.09
2023-02-11T01:48:38.815Z,-0.07
2023-02-11T01:54:20.304Z,-0.04
2023-02-11T01:59:48.597Z,0.01
2023-02-11T02:05:24.360Z,0.04
2023-02-11T02:10:47.949Z,0.04
2023-02-11T02:16:16.519Z,0.10
2023-02-11T02:22:34.718Z,0.15
2023-02-11T02:28:21.017Z,0.18
2023-02-11T02:33:45.579Z,0.19
2023-02-11T02:39:18.216Z,0.20
2023-02-11T02:44:38.937Z,0.18
2023-02-11T02:49:59.759Z,0.18
2023-02-11T02:55:23.623Z,0.24
2023-02-11T03:01:00.945Z,0.29
2023-02-11T03:06:39.137Z,0.34
2023-02-11T03:12:02.662Z,0.44
2023-02-11T03:17:26.289Z,0.48
2023-02-11T03:22:55.772Z,0.56
2023-02-11T03:28:36.740Z,0.57
2023-02-11T03:34:12.695Z,0.58
2023-02-11T03:39:39.168Z,0.59
2023-02-11T03:45:10.786Z,0.60
2023-02-11T03:50:35.131Z,0.71
2023-02-11T03:56:00.451Z,0.80
2023-02-11T04:01:21.813Z,0.75
2023-02-11T04:06:43.446Z,0.69
2023-02-11T04:12:04.199Z,0.63
2023-02-11T04:17:25.239Z,0.64
2023-02-11T04:22:46.352Z,0.63
2023-02-11T04:28:07.291Z,0.63
2023-02-11T04:33:28.103Z,0.62
2023-02-11T04:38:48.839Z,0.61
2023-02-11T04:44:09.528Z,0.63
2023-02-11T04:49:30.648Z,0.66
2023-02-11T04:54:51.115Z,0.70
2023-02-11T05:00:12.454Z,0.73
2023-02-11T05:05:33.262Z,0.74
2023-02-11T05:10:54.170Z,0.76
2023-02-11T05:16:16.131Z,0.82
2023-02-11T05:21:37.096Z,0.83
2023-02-11T05:26:57.888Z,0.83
2023-02-11T05:32:18.996Z,0.84
2023-02-11T05:37:40.225Z,0.91
2023-02-11T05:43:01.178Z,0.95
2023-02-11T05:48:21.901Z,0.94
2023-02-11T05:53:42.533Z,0.94
2023-02-11T05:59:03.506Z,0.98
2023-02-11T06:04:24.264Z,0.98
2023-02-11T06:09:45.107Z,0.97
2023-02-11T06:15:06.618Z,0.97
2023-02-11T06:20:27.104Z,1.00
2023-02-11T06:25:47.977Z,1.02
2023-02-11T06:31:09.955Z,1.04
2023-02-11T06:36:30.942Z,1.06
2023-02-11T06:41:52.305Z,1.10
2023-02-11T06:47:13.052Z,1.17
2023-02-11T06:52:34.126Z,1.20
2023-02-11T06:57:54.874Z,1.23
2023-02-11T07:03:15.615Z,1.26
2023-02-11T07:08:38.015Z,1.32
2023-02-11T07:14:10.840Z,1.33
2023-02-11T07:19:32.041Z,1.39
2023-02-11T07:24:52.776Z,1.50
2023-02-11T07:30:14.156Z,1.53
2023-02-11T07:35:34.857Z,1.62
2023-02-11T07:41:00.679Z,1.61
2023-02-11T07:46:25.082Z,1.62
2023-02-11T07:51:46.188Z,1.63
2023-02-11T07:57:08.390Z,1.70
2023-02-11T08:02:29.490Z,1.76
2023-02-11T08:07:54.902Z,1.80
2023-02-11T08:13:15.439Z,1.83
2023-02-11T08:18:36.777Z,1.88
2023-02-11T08:23:57.562Z,1.90
2023-02-11T08:29:18.527Z,1.98
2023-02-11T08:34:39.304Z,2.00
2023-02-11T08:40:00.191Z,2.10
2023-02-11T08:45:20.839Z,2.14
2023-02-11T08:50:41.833Z,2.14
2023-02-11T08:56:02.966Z,2.12
2023-02-11T09:01:26.911Z,2.12
2023-02-11T09:06:49.235Z,2.23
2023-02-11T09:12:10.153Z,2.30
2023-02-11T09:17:30.972Z,2.37
2023-02-11T09:22:51.680Z,2.44
2023-02-11T09:28:12.978Z,2.49
2023-02-11T09:33:34.099Z,2.53
2023-02-11T09:38:55.432Z,2.59
2023-02-11T09:44:28.369Z,2.63
2023-02-11T09:49:53.731Z,2.67
2023-02-11T09:55:20.661Z,2.77
2023-02-11T10:00:59.882Z,2.84
2023-02-11T10:06:59.605Z,2.98
2023-02-11T10:12:51.493Z,3.03
2023-02-11T10:18:57.793Z,3.04
2023-02-11T10:24:19.114Z,3.04
2023-02-11T10:29:46.306Z,3.09
2023-02-11T10:35:16.156Z,3.11
2023-02-11T10:40:36.792Z,3.25
2023-02-11T10:45:59.088Z,3.28
2023-02-11T10:51:23.523Z,3.33
2023-02-11T10:56:58.638Z,3.46
2023-02-11T11:02:34.699Z,3.52
2023-02-11T11:08:00.180Z,3.59
2023-02-11T11:13:30.348Z,3.54
2023-02-11T11:19:13.676Z,3.54
2023-02-11T11:24:46.637Z,3.47
2023-02-11T11:30:16.886Z,3.46
2023-02-11T11:35:37.963Z,3.46
2023-02-11T11:41:20.397Z,3.44
2023-02-11T11:46:43.528Z,3.49
2023-02-11T11:52:22.854Z,3.54
2023-02-11T11:57:44.020Z,3.56
2023-02-11T12:03:37.398Z,3.57
2023-02-11T12:09:30.893Z,3.51
2023-02-11T12:15:30.552Z,3.47
2023-02-11T12:21:16.183Z,3.44
2023-02-11T12:26:49.670Z,3.62
2023-02-11T12:32:21.558Z,3.76
2023-02-11T12:38:18.897Z,3.85
2023-02-11T12:43:44.587Z,3.81
2023-02-11T12:49:26.499Z,3.72
2023-02-11T12:54:59.446Z,3.67
2023-02-11T13:00:25.139Z,3.66
2023-02-11T13:05:49.623Z,3.74
2023-02-11T13:11:33.622Z,3.67
2023-02-11T13:16:57.112Z,3.61
2023-02-11T13:22:31.836Z,3.62
2023-02-11T13:28:23.535Z,3.67
2023-02-11T13:33:45.876Z,3.67
2023-02-11T13:39:07.118Z,3.65
2023-02-11T13:44:28.505Z,3.63
2023-02-11T13:49:53.465Z,3.68
2023-02-11T13:55:14.007Z,3.64
2023-02-11T14:00:34.859Z,3.66
2023-02-11T14:06:30.724Z,3.66
2023-02-11T14:11:56.203Z,3.63
2023-02-11T14:17:18.993Z,3.60
2023-02-11T14:22:47.826Z,3.59
2023-02-11T14:28:32.947Z,3.63
2023-02-11T14:34:13.359Z,3.64
2023-02-11T14:39:52.747Z,3.63
2023-02-11T14:45:24.892Z,3.62
2023-02-11T14:50:52.874Z,3.59
2023-02-11T14:56:26.394Z,3.64
2023-02-11T15:01:54.412Z,3.63
2023-02-11T15:07:16.084Z,3.64
2023-02-11T15:12:38.251Z,3.59
2023-02-11T15:18:02.830Z,4.21
2023-02-11T15:23:28.973Z,5.14
2023-02-11T15:28:52.145Z,4.58
2023-02-11T15:34:12.693Z,4.09
2023-02-11T15:39:37.993Z,3.84
2023-02-11T15:45:15.676Z,3.72
2023-02-11T15:50:40.552Z,3.64
2023-02-11T15:56:19.337Z,3.56
2023-02-11T16:01:41.037Z,3.55
2023-02-11T16:07:01.776Z,3.56
2023-02-11T16:12:27.057Z,3.52
2023-02-11T16:17:48.534Z,3.47
2023-02-11T16:23:22.057Z,3.47
2023-02-11T16:28:43.009Z,3.47
2023-02-11T16:34:11.597Z,3.45
2023-02-11T16:39:33.374Z,3.44
2023-02-11T16:44:54.519Z,3.44
2023-02-11T16:50:23.984Z,3.41
2023-02-11T16:55:44.692Z,3.43
2023-02-11T17:01:06.925Z,3.43
2023-02-11T17:06:28.738Z,3.41
2023-02-11T17:11:50.229Z,3.42
2023-02-11T17:17:13.592Z,3.45
2023-02-11T17:22:34.329Z,3.44
2023-02-11T17:27:55.133Z,3.45
2023-02-11T17:33:16.217Z,3.48
2023-02-11T17:38:38.021Z,3.50
2023-02-11T17:43:59.687Z,3.49
2023-02-11T17:49:20.471Z,3.50
2023-02-11T17:54:41.294Z,3.50
2023-02-11T18:00:02.159Z,3.52
2023-02-11T18:05:36.295Z,3.51
2023-02-11T18:10:57.069Z,3.50
2023-02-11T18:16:17.951Z,3.54
2023-02-11T18:21:39.342Z,3.51
2023-02-11T18:27:00.069Z,3.57
2023-02-11T18:32:20.903Z,3.60
2023-02-11T18:37:43.129Z,3.62
2023-02-11T18:43:04.099Z,3.61
2023-02-11T18:48:27.133Z,3.62
2023-02-11T18:53:48.212Z,3.66
2023-02-11T18:59:08.870Z,3.69
2023-02-11T19:04:29.757Z,3.70
2023-02-11T19:09:50.865Z,3.73
2023-02-11T19:15:11.694Z,3.75
2023-02-11T19:20:33.516Z,3.71
2023-02-11T19:25:54.406Z,3.66
2023-02-11T19:31:15.866Z,3.72
2023-02-11T19:36:37.799Z,3.73
2023-02-11T19:41:59.115Z,3.76
2023-02-11T19:47:20.108Z,3.71
2023-02-11T19:52:41.173Z,3.68
2023-02-11T19:58:01.964Z,3.63
2023-02-11T20:03:23.520Z,3.62
2023-02-11T20:08:44.464Z,3.58
2023-02-11T20:14:06.856Z,3.61
2023-02-11T20:19:28.036Z,3.57
2023-02-11T20:24:49.012Z,3.53
2023-02-11T20:30:11.736Z,3.46
2023-02-11T20:35:32.744Z,3.43
2023-02-11T20:40:54.017Z,3.42
2023-02-11T20:46:17.007Z,3.43
2023-02-11T20:51:39.625Z,3.44
2023-02-11T20:57:00.762Z,3.42
2023-02-11T21:02:24.369Z,3.46
2023-02-11T21:07:46.523Z,3.41
2023-02-11T21:13:07.101Z,3.42
2023-02-11T21:18:27.831Z,3.45
2023-02-11T21:23:48.549Z,3.48
2023-02-11T21:29:10.031Z,3.50
2023-02-11T21:34:31.121Z,3.43
2023-02-11T21:39:52.031Z,3.48
2023-02-11T21:45:12.655Z,3.48
2023-02-11T21:50:33.439Z,3.47
2023-02-11T21:56:06.222Z,3.46
2023-02-11T22:01:30.388Z,3.52
2023-02-11T22:06:51.126Z,3.49
2023-02-11T22:12:12.006Z,3.47
2023-02-11T22:17:34.781Z,3.49
2023-02-11T22:22:55.446Z,3.54
2023-02-11T22:28:16.225Z,3.55
2023-02-11T22:33:37.040Z,3.58
2023-02-11T22:39:06.539Z,3.60
2023-02-11T22:44:27.421Z,3.56
2023-02-11T22:49:48.288Z,3.57
2023-02-11T22:55:09.801Z,3.53
2023-02-11T23:00:36.277Z,3.56
2023-02-11T23:05:58.741Z,3.56
2023-02-11T23:11:26.822Z,3.54
2023-02-11T23:16:50.020Z,3.56
2023-02-11T23:22:10.721Z,3.56
2023-02-11T23:27:31.680Z,3.57
2023-02-11T23:32:52.881Z,3.67
2023-02-11T23:38:13.627Z,3.57
2023-02-11T23:43:34.325Z,3.49
2023-02-11T23:48:55.654Z,3.50
2023-02-11T23:54:16.737Z,3.58
2023-02-11T23:59:37.577Z,3.60
